Esperance Mo, Western Australia

11:21 AM AWST on May 04, 2015 (GMT +0800)
Esperance | | Change Station
CLOSE
Current Station
Airport
Location: Esperance Airport,
Elevation: 469 ft
Nearby Weather Stations

Elev 469 ft 33.68 °S, 121.82 °E | Updated 21 minutes ago

Mostly Cloudy
Mostly Cloudy
48 °F
Feels Like 48 °F
N
25
Wind Variable Wind from West

Today
High -- | Low -- °F
--% Chance of Precip.
Yesterday
High -- | Low -- °F
Precip. -- in
6:28 AM 5:09 PM
Full, 100% visible
Pressure 29.98 in
Visibility -9999.0 miles
Clouds Scattered Clouds 1800 ft
Mostly Cloudy 2800 ft
Mostly Cloudy 3900 ft
Dew Point 46 °F
Humidity 93%
Rainfall 0.00 in
Snow Depth Not available.
UV 3 out of 12
Pollen Not available.
Air Quality Not available.
Flu Activity Not available.
SPECI YESP 040300Z AUTO 27022KT 4100 // SCT018 BKN028 BKN039 09/08 Q1015

More Conditions Fewer Conditions

Pressure 29.98 in
Visibility -9999.0 miles
Clouds Scattered Clouds 1800 ft
Mostly Cloudy 2800 ft
Mostly Cloudy 3900 ft
Dew Point 46 °F
Humidity 93%
Rainfall 0.00 in
Snow Depth Not available.
UV 3 out of 12
Pollen Not available.
Air Quality Not available.
Flu Activity Not available.
SPECI YESP 040300Z AUTO 27022KT 4100 // SCT018 BKN028 BKN039 09/08 Q1015

More Conditions Fewer Conditions

10-Day Weather Forecast

Almanac

Astronomy

May. 04, 2015 Rise Set
Actual Time
Civil Twilight
Nautical Twilight
Astronomical Twilight
Moon
Length of Visible Light
Length of Day
Tomorrow will be .
, % of the Moon is Illuminated

Today's Extremes

Country Highs Country Lows

Community

WunderPhotos

Upload Photos

1,818,493 photos uploaded!

WunderBlogs® & News

Nearby

Air Quality

  Air Quality AQ Index Pollutant
Not available.

Snow Depth

Station Depth Elevation

Earthquake Activity

City Distance Mag. Time & Date
Minimum magnitude displayed is 2.5.

Coastal Water Temperatures

Place Temperature

Stations

Nearby Weather Stations

Station Location Temp. Windchill Dew Point Humidity Wind Precip. Elev Updated Type